sensor_id;sensor_type;location;lat;lon;timestamp;pressure;altitude;pressure_sealevel;temperature;humidity
47726;BME280;33483;48.294;16.388;2022-08-27T00:01:48;99044.06;;;21.71;99.64
47726;BME280;33483;48.294;16.388;2022-08-27T00:04:15;99045.31;;;21.68;99.89
47726;BME280;33483;48.294;16.388;2022-08-27T00:06:42;99045.81;;;21.64;99.89
47726;BME280;33483;48.294;16.388;2022-08-27T00:09:12;99052.56;;;21.59;100.00
47726;BME280;33483;48.294;16.388;2022-08-27T00:11:39;99052.22;;;21.53;100.00
47726;BME280;33483;48.294;16.388;2022-08-27T00:14:07;99051.25;;;21.49;100.00
47726;BME280;33483;48.294;16.388;2022-08-27T00:16:35;99049.03;;;21.47;99.81
47726;BME280;33483;48.294;16.388;2022-08-27T00:19:03;99048.81;;;21.43;99.76
47726;BME280;33483;48.294;16.388;2022-08-27T00:21:33;99041.44;;;21.38;100.00
47726;BME280;33483;48.294;16.388;2022-08-27T00:24:00;99055.44;;;21.36;100.00
47726;BME280;33483;48.294;16.388;2022-08-27T00:26:27;99050.28;;;21.33;100.00
47726;BME280;33483;48.294;16.388;2022-08-27T00:28:55;99054.81;;;21.26;100.00
47726;BME280;33483;48.294;16.388;2022-08-27T00:31:27;99062.91;;;21.20;100.00
47726;BME280;33483;48.294;16.388;2022-08-27T00:33:55;99059.75;;;21.14;100.00
47726;BME280;33483;48.294;16.388;2022-08-27T00:36:25;99060.72;;;21.07;100.00
47726;BME280;33483;48.294;16.388;2022-08-27T00:38:53;99063.78;;;20.99;100.00
47726;BME280;33483;48.294;16.388;2022-08-27T00:41:21;99061.28;;;20.94;100.00
47726;BME280;33483;48.294;16.388;2022-08-27T00:49:02;99070.81;;;20.77;100.00
47726;BME280;33483;48.294;16.388;2022-08-27T00:51:31;99082.78;;;20.66;100.00
47726;BME280;33483;48.294;16.388;2022-08-27T00:53:59;99081.81;;;20.62;100.00
47726;BME280;33483;48.294;16.388;2022-08-27T00:56:34;99078.75;;;20.58;100.00
47726;BME280;33483;48.294;16.388;2022-08-27T00:59:03;99086.41;;;20.46;100.00
47726;BME280;33483;48.294;16.388;2022-08-27T01:01:33;99082.22;;;20.35;100.00
47726;BME280;33483;48.294;16.388;2022-08-27T01:04:03;99077.53;;;20.28;100.00
47726;BME280;33483;48.294;16.388;2022-08-27T01:06:35;99072.41;;;20.25;100.00
47726;BME280;33483;48.294;16.388;2022-08-27T01:09:09;99070.31;;;20.25;100.00
47726;BME280;33483;48.294;16.388;2022-08-27T01:11:40;99060.78;;;20.30;100.00
47726;BME280;33483;48.294;16.388;2022-08-27T01:14:08;99062.25;;;20.31;100.00
47726;BME280;33483;48.294;16.388;2022-08-27T01:16:38;99061.66;;;20.33;100.00
47726;BME280;33483;48.294;16.388;2022-08-27T01:24:57;99067.31;;;20.11;100.00
47726;BME280;33483;48.294;16.388;2022-08-27T01:27:28;99073.28;;;20.06;100.00
47726;BME280;33483;48.294;16.388;2022-08-27T01:29:57;99065.78;;;19.99;100.00
47726;BME280;33483;48.294;16.388;2022-08-27T01:32:30;99071.59;;;19.91;100.00
47726;BME280;33483;48.294;16.388;2022-08-27T01:34:59;99070.75;;;19.89;100.00
47726;BME280;33483;48.294;16.388;2022-08-27T01:37:27;99070.63;;;19.87;100.00
47726;BME280;33483;48.294;16.388;2022-08-27T01:39:55;99065.59;;;19.85;100.00
47726;BME280;33483;48.294;16.388;2022-08-27T01:42:29;99072.69;;;19.86;100.00
47726;BME280;33483;48.294;16.388;2022-08-27T01:45:00;99070.47;;;19.85;100.00
47726;BME280;33483;48.294;16.388;2022-08-27T01:47:35;99064.25;;;19.86;100.00
47726;BME280;33483;48.294;16.388;2022-08-27T01:50:07;99075.63;;;19.88;100.00
47726;BME280;33483;48.294;16.388;2022-08-27T01:52:35;99067.81;;;19.87;100.00
47726;BME280;33483;48.294;16.388;2022-08-27T01:55:05;99070.34;;;19.83;100.00
47726;BME280;33483;48.294;16.388;2022-08-27T01:57:33;99068.56;;;19.87;100.00
47726;BME280;33483;48.294;16.388;2022-08-27T02:00:11;99068.56;;;19.87;100.00
47726;BME280;33483;48.294;16.388;2022-08-27T02:02:40;99069.06;;;19.95;100.00
47726;BME280;33483;48.294;16.388;2022-08-27T02:05:09;99062.38;;;20.00;100.00
47726;BME280;33483;48.294;16.388;2022-08-27T02:07:39;99062.28;;;20.10;100.00
47726;BME280;33483;48.294;16.388;2022-08-27T02:10:13;99058.75;;;20.09;100.00
47726;BME280;33483;48.294;16.388;2022-08-27T02:12:42;99074.03;;;20.06;100.00
47726;BME280;33483;48.294;16.388;2022-08-27T02:15:12;99067.19;;;20.09;100.00
47726;BME280;33483;48.294;16.388;2022-08-27T02:17:41;99064.56;;;20.02;100.00
47726;BME280;33483;48.294;16.388;2022-08-27T02:20:09;99075.16;;;19.92;100.00
47726;BME280;33483;48.294;16.388;2022-08-27T02:22:37;99071.09;;;19.83;100.00
47726;BME280;33483;48.294;16.388;2022-08-27T02:25:06;99075.69;;;19.79;100.00
47726;BME280;33483;48.294;16.388;2022-08-27T02:27:36;99066.78;;;19.82;100.00
47726;BME280;33483;48.294;16.388;2022-08-27T02:30:04;99076.72;;;19.83;100.00
47726;BME280;33483;48.294;16.388;2022-08-27T02:32:34;99066.78;;;19.82;100.00
47726;BME280;33483;48.294;16.388;2022-08-27T02:35:03;99069.72;;;19.84;100.00
47726;BME280;33483;48.294;16.388;2022-08-27T02:37:31;99069.88;;;19.86;100.00
47726;BME280;33483;48.294;16.388;2022-08-27T02:39:59;99076.09;;;19.85;100.00
47726;BME280;33483;48.294;16.388;2022-08-27T02:42:27;99072.06;;;19.88;100.00
47726;BME280;33483;48.294;16.388;2022-08-27T02:44:55;99078.31;;;19.86;100.00
47726;BME280;33483;48.294;16.388;2022-08-27T02:47:22;99073.44;;;19.87;100.00
47726;BME280;33483;48.294;16.388;2022-08-27T02:49:51;99091.16;;;19.89;100.00
47726;BME280;33483;48.294;16.388;2022-08-27T02:52:19;99089.56;;;19.86;100.00
47726;BME280;33483;48.294;16.388;2022-08-27T02:54:54;99094.44;;;19.86;100.00
47726;BME280;33483;48.294;16.388;2022-08-27T02:57:21;99084.69;;;19.87;100.00
47726;BME280;33483;48.294;16.388;2022-08-27T02:59:50;99086.94;;;19.79;100.00
47726;BME280;33483;48.294;16.388;2022-08-27T03:02:19;99088.75;;;19.74;100.00
47726;BME280;33483;48.294;16.388;2022-08-27T03:04:47;99091.44;;;19.72;100.00
47726;BME280;33483;48.294;16.388;2022-08-27T03:07:16;99082.25;;;19.72;100.00
47726;BME280;33483;48.294;16.388;2022-08-27T03:09:45;99085.47;;;19.78;100.00
47726;BME280;33483;48.294;16.388;2022-08-27T03:12:12;99081.31;;;19.79;100.00
47726;BME280;33483;48.294;16.388;2022-08-27T03:14:39;99080.47;;;19.76;100.00
47726;BME280;33483;48.294;16.388;2022-08-27T03:17:08;99086.28;;;19.69;100.00
47726;BME280;33483;48.294;16.388;2022-08-27T03:19:54;99087.94;;;19.62;100.00
47726;BME280;33483;48.294;16.388;2022-08-27T03:22:22;99093.28;;;19.58;100.00
47726;BME280;33483;48.294;16.388;2022-08-27T03:24:49;99088.88;;;19.55;100.00
47726;BME280;33483;48.294;16.388;2022-08-27T03:27:16;99092.91;;;19.52;100.00
47726;BME280;33483;48.294;16.388;2022-08-27T03:29:44;99094.97;;;19.52;100.00
47726;BME280;33483;48.294;16.388;2022-08-27T03:32:11;99095.72;;;19.52;100.00
47726;BME280;33483;48.294;16.388;2022-08-27T03:34:38;99091.56;;;19.53;100.00
47726;BME280;33483;48.294;16.388;2022-08-27T03:37:09;99094.22;;;19.51;100.00
47726;BME280;33483;48.294;16.388;2022-08-27T03:39:39;99098.25;;;19.48;100.00
47726;BME280;33483;48.294;16.388;2022-08-27T03:42:11;99093.69;;;19.43;100.00
47726;BME280;33483;48.294;16.388;2022-08-27T03:44:38;99094.91;;;19.40;100.00
47726;BME280;33483;48.294;16.388;2022-08-27T03:47:06;99105.84;;;19.36;100.00
47726;BME280;33483;48.294;16.388;2022-08-27T03:49:33;99101.28;;;19.31;100.00
47726;BME280;33483;48.294;16.388;2022-08-27T03:52:00;99099.66;;;19.28;100.00
47726;BME280;33483;48.294;16.388;2022-08-27T03:54:29;99099.81;;;19.30;100.00
47726;BME280;33483;48.294;16.388;2022-08-27T03:57:00;99099.81;;;19.30;100.00
47726;BME280;33483;48.294;16.388;2022-08-27T03:59:28;99101.44;;;19.24;100.00
47726;BME280;33483;48.294;16.388;2022-08-27T04:01:55;99098.81;;;19.16;100.00
47726;BME280;33483;48.294;16.388;2022-08-27T04:04:23;99105.47;;;19.11;100.00
47726;BME280;33483;48.294;16.388;2022-08-27T04:06:50;99113.50;;;19.05;100.00
47726;BME280;33483;48.294;16.388;2022-08-27T04:09:20;99119.44;;;18.99;100.00
47726;BME280;33483;48.294;16.388;2022-08-27T04:11:48;99120.78;;;18.98;100.00
47726;BME280;33483;48.294;16.388;2022-08-27T04:14:15;99124.31;;;18.99;100.00
47726;BME280;33483;48.294;16.388;2022-08-27T04:16:55;99122.09;;;18.97;100.00
47726;BME280;33483;48.294;16.388;2022-08-27T04:19:24;99114.41;;;18.98;100.00
47726;BME280;33483;48.294;16.388;2022-08-27T04:21:59;99112.91;;;18.97;100.00
47726;BME280;33483;48.294;16.388;2022-08-27T04:24:31;99111.59;;;18.98;100.00
47726;BME280;33483;48.294;16.388;2022-08-27T04:27:00;99115.28;;;19.00;100.00
47726;BME280;33483;48.294;16.388;2022-08-27T04:29:28;99117.63;;;19.04;100.00
47726;BME280;33483;48.294;16.388;2022-08-27T04:31:55;99107.88;;;19.05;100.00
47726;BME280;33483;48.294;16.388;2022-08-27T04:34:23;99110.69;;;19.05;100.00
47726;BME280;33483;48.294;16.388;2022-08-27T04:36:53;99109.94;;;19.04;100.00
47726;BME280;33483;48.294;16.388;2022-08-27T04:39:21;99112.00;;;19.04;100.00
47726;BME280;33483;48.294;16.388;2022-08-27T04:41:50;99109.50;;;19.08;100.00
47726;BME280;33483;48.294;16.388;2022-08-27T04:44:18;99112.91;;;19.06;100.00
47726;BME280;33483;48.294;16.388;2022-08-27T04:46:46;99117.78;;;19.06;100.00
47726;BME280;33483;48.294;16.388;2022-08-27T04:49:16;99124.59;;;19.03;100.00
47726;BME280;33483;48.294;16.388;2022-08-27T04:51:43;99115.28;;;19.00;100.00
47726;BME280;33483;48.294;16.388;2022-08-27T04:54:12;99119.44;;;18.99;100.00
47726;BME280;33483;48.294;16.388;2022-08-27T04:56:41;99120.03;;;18.98;100.00
47726;BME280;33483;48.294;16.388;2022-08-27T04:59:11;99119.28;;;18.97;100.00
47726;BME280;33483;48.294;16.388;2022-08-27T05:01:39;99129.19;;;18.98;100.00
47726;BME280;33483;48.294;16.388;2022-08-27T05:04:10;99134.38;;;19.02;100.00
47726;BME280;33483;48.294;16.388;2022-08-27T05:06:40;99124.75;;;19.05;100.00
47726;BME280;33483;48.294;16.388;2022-08-27T05:09:07;99122.94;;;19.09;100.00
47726;BME280;33483;48.294;16.388;2022-08-27T05:11:36;99134.59;;;19.16;100.00
47726;BME280;33483;48.294;16.388;2022-08-27T05:14:08;99137.81;;;19.31;100.00
47726;BME280;33483;48.294;16.388;2022-08-27T05:16:36;99148.16;;;19.38;100.00
47726;BME280;33483;48.294;16.388;2022-08-27T05:19:07;99148.22;;;19.50;100.00
47726;BME280;33483;48.294;16.388;2022-08-27T05:21:37;99147.13;;;19.64;100.00
47726;BME280;33483;48.294;16.388;2022-08-27T05:24:06;99143.31;;;19.81;100.00
47726;BME280;33483;48.294;16.388;2022-08-27T05:26:34;99155.94;;;20.01;100.00
47726;BME280;33483;48.294;16.388;2022-08-27T05:29:03;99153.19;;;20.12;100.00
47726;BME280;33483;48.294;16.388;2022-08-27T05:31:32;99152.41;;;20.22;100.00
47726;BME280;33483;48.294;16.388;2022-08-27T05:34:00;99157.38;;;20.33;100.00
47726;BME280;33483;48.294;16.388;2022-08-27T05:36:36;99156.19;;;20.47;100.00
47726;BME280;33483;48.294;16.388;2022-08-27T05:39:15;99157.09;;;20.61;100.00
47726;BME280;33483;48.294;16.388;2022-08-27T05:41:43;99162.41;;;20.78;100.00
47726;BME280;33483;48.294;16.388;2022-08-27T05:44:12;99166.69;;;21.00;100.00
47726;BME280;33483;48.294;16.388;2022-08-27T05:47:03;99165.63;;;21.29;100.00
47726;BME280;33483;48.294;16.388;2022-08-27T05:49:32;99175.44;;;21.51;100.00
47726;BME280;33483;48.294;16.388;2022-08-27T05:52:07;99167.34;;;21.68;100.00
47726;BME280;33483;48.294;16.388;2022-08-27T05:54:34;99179.03;;;21.86;100.00
47726;BME280;33483;48.294;16.388;2022-08-27T05:57:01;99183.41;;;22.00;100.00
47726;BME280;33483;48.294;16.388;2022-08-27T05:59:31;99183.84;;;22.20;100.00
47726;BME280;33483;48.294;16.388;2022-08-27T06:02:16;99176.41;;;22.50;100.00
47726;BME280;33483;48.294;16.388;2022-08-27T06:04:46;99184.56;;;22.69;100.00
47726;BME280;33483;48.294;16.388;2022-08-27T06:07:14;99185.31;;;22.94;100.00
47726;BME280;33483;48.294;16.388;2022-08-27T06:09:41;99188.13;;;23.19;100.00
47726;BME280;33483;48.294;16.388;2022-08-27T06:12:09;99199.94;;;23.55;100.00
47726;BME280;33483;48.294;16.388;2022-08-27T06:14:37;99202.91;;;23.70;100.00
47726;BME280;33483;48.294;16.388;2022-08-27T06:17:04;99202.38;;;23.74;100.00
47726;BME280;33483;48.294;16.388;2022-08-27T06:19:33;99198.81;;;23.73;100.00
47726;BME280;33483;48.294;16.388;2022-08-27T06:22:03;99200.06;;;23.84;100.00
47726;BME280;33483;48.294;16.388;2022-08-27T06:24:41;99204.19;;;24.08;100.00
47726;BME280;33483;48.294;16.388;2022-08-27T06:27:11;99190.34;;;24.00;100.00
47726;BME280;33483;48.294;16.388;2022-08-27T06:29:40;99196.84;;;24.16;100.00
47726;BME280;33483;48.294;16.388;2022-08-27T06:32:08;99203.31;;;24.46;100.00
47726;BME280;33483;48.294;16.388;2022-08-27T06:34:36;99203.78;;;24.70;100.00
47726;BME280;33483;48.294;16.388;2022-08-27T06:37:04;99201.97;;;24.76;100.00
47726;BME280;33483;48.294;16.388;2022-08-27T06:39:33;99200.50;;;24.75;100.00
47726;BME280;33483;48.294;16.388;2022-08-27T06:42:03;99202.06;;;25.23;100.00
47726;BME280;33483;48.294;16.388;2022-08-27T06:44:35;99201.91;;;25.34;100.00
47726;BME280;33483;48.294;16.388;2022-08-27T06:47:02;99199.34;;;26.18;100.00
47726;BME280;33483;48.294;16.388;2022-08-27T06:49:30;99206.25;;;26.82;100.00
47726;BME280;33483;48.294;16.388;2022-08-27T06:51:59;99204.44;;;26.55;100.00
47726;BME280;33483;48.294;16.388;2022-08-27T06:54:27;99209.16;;;27.73;100.00
47726;BME280;33483;48.294;16.388;2022-08-27T06:56:57;99216.94;;;29.16;94.88
47726;BME280;33483;48.294;16.388;2022-08-27T06:59:27;99217.38;;;30.29;73.14
47726;BME280;33483;48.294;16.388;2022-08-27T07:01:55;99222.06;;;31.31;66.71
47726;BME280;33483;48.294;16.388;2022-08-27T07:04:23;99226.59;;;32.07;59.17
47726;BME280;33483;48.294;16.388;2022-08-27T07:07:00;99237.13;;;31.31;60.04
47726;BME280;33483;48.294;16.388;2022-08-27T07:09:29;99231.00;;;30.30;60.25
47726;BME280;33483;48.294;16.388;2022-08-27T07:11:59;99239.94;;;30.44;61.40
47726;BME280;33483;48.294;16.388;2022-08-27T07:14:28;99236.31;;;30.97;59.34
47726;BME280;33483;48.294;16.388;2022-08-27T07:17:02;99250.25;;;30.55;60.29
47726;BME280;33483;48.294;16.388;2022-08-27T07:19:30;99244.41;;;30.51;60.07
47726;BME280;33483;48.294;16.388;2022-08-27T07:22:01;99246.59;;;29.52;63.27
47726;BME280;33483;48.294;16.388;2022-08-27T07:24:29;99244.00;;;28.72;65.85
47726;BME280;33483;48.294;16.388;2022-08-27T07:26:56;99250.28;;;28.27;67.24
47726;BME280;33483;48.294;16.388;2022-08-27T07:29:23;99242.63;;;27.93;69.90
47726;BME280;33483;48.294;16.388;2022-08-27T07:31:54;99251.28;;;29.65;66.23
47726;BME280;33483;48.294;16.388;2022-08-27T07:34:24;99249.63;;;30.59;60.80
47726;BME280;33483;48.294;16.388;2022-08-27T07:36:51;99250.63;;;31.58;59.60
47726;BME280;33483;48.294;16.388;2022-08-27T07:39:18;99255.91;;;32.79;55.70
47726;BME280;33483;48.294;16.388;2022-08-27T07:41:48;99253.84;;;32.85;53.08
47726;BME280;33483;48.294;16.388;2022-08-27T07:44:33;99261.84;;;33.35;50.73
47726;BME280;33483;48.294;16.388;2022-08-27T07:47:01;99264.59;;;33.76;50.37
47726;BME280;33483;48.294;16.388;2022-08-27T07:49:29;99257.91;;;33.60;49.68
47726;BME280;33483;48.294;16.388;2022-08-27T07:51:58;99259.03;;;33.41;50.49
47726;BME280;33483;48.294;16.388;2022-08-27T07:54:25;99253.72;;;33.69;50.06
47726;BME280;33483;48.294;16.388;2022-08-27T07:56:55;99268.09;;;34.27;48.99
47726;BME280;33483;48.294;16.388;2022-08-27T07:59:23;99263.09;;;33.71;48.47
47726;BME280;33483;48.294;16.388;2022-08-27T08:01:57;99262.50;;;33.79;48.63
47726;BME280;33483;48.294;16.388;2022-08-27T08:04:25;99261.47;;;34.14;48.65
47726;BME280;33483;48.294;16.388;2022-08-27T08:06:53;99263.34;;;34.51;47.24
47726;BME280;33483;48.294;16.388;2022-08-27T08:09:22;99266.78;;;35.07;46.12
47726;BME280;33483;48.294;16.388;2022-08-27T08:11:52;99256.25;;;34.60;45.74
47726;BME280;33483;48.294;16.388;2022-08-27T08:14:20;99257.72;;;33.99;46.96
47726;BME280;33483;48.294;16.388;2022-08-27T08:16:48;99261.53;;;33.62;46.73
47726;BME280;33483;48.294;16.388;2022-08-27T08:19:15;99261.38;;;33.50;48.04
47726;BME280;33483;48.294;16.388;2022-08-27T08:21:43;99256.78;;;33.83;47.19
47726;BME280;33483;48.294;16.388;2022-08-27T08:24:11;99266.47;;;34.09;47.41
47726;BME280;33483;48.294;16.388;2022-08-27T08:26:41;99260.41;;;33.85;46.97
47726;BME280;33483;48.294;16.388;2022-08-27T08:29:08;99264.16;;;33.96;47.72
47726;BME280;33483;48.294;16.388;2022-08-27T08:31:44;99263.75;;;33.66;48.45
47726;BME280;33483;48.294;16.388;2022-08-27T08:34:17;99256.41;;;33.55;47.95
47726;BME280;33483;48.294;16.388;2022-08-27T08:36:48;99253.56;;;33.57;47.58
47726;BME280;33483;48.294;16.388;2022-08-27T08:39:21;99256.81;;;33.35;47.94
47726;BME280;33483;48.294;16.388;2022-08-27T08:41:58;99252.63;;;32.96;48.31
47726;BME280;33483;48.294;16.388;2022-08-27T08:44:45;99256.13;;;33.37;48.72
47726;BME280;33483;48.294;16.388;2022-08-27T08:47:24;99264.00;;;33.84;47.55
47726;BME280;33483;48.294;16.388;2022-08-27T08:58:10;99258.66;;;34.18;46.52
47726;BME280;33483;48.294;16.388;2022-08-27T09:00:41;99254.69;;;33.89;47.32
47726;BME280;33483;48.294;16.388;2022-08-27T09:03:13;99253.50;;;33.53;47.42
47726;BME280;33483;48.294;16.388;2022-08-27T09:05:58;99253.06;;;33.25;47.01
47726;BME280;33483;48.294;16.388;2022-08-27T09:08:37;99246.41;;;33.60;46.88
47726;BME280;33483;48.294;16.388;2022-08-27T09:13:50;99241.06;;;32.13;49.33
47726;BME280;33483;48.294;16.388;2022-08-27T09:16:19;99234.91;;;30.98;52.85
47726;BME280;33483;48.294;16.388;2022-08-27T09:18:46;99241.88;;;30.36;54.73
47726;BME280;33483;48.294;16.388;2022-08-27T09:23:57;99239.19;;;29.67;57.53
47726;BME280;33483;48.294;16.388;2022-08-27T09:26:30;99230.72;;;29.47;58.54
47726;BME280;33483;48.294;16.388;2022-08-27T09:29:02;99227.94;;;29.04;59.77
47726;BME280;33483;48.294;16.388;2022-08-27T09:31:45;99222.94;;;29.05;59.87
47726;BME280;33483;48.294;16.388;2022-08-27T09:34:13;99218.47;;;29.43;61.38
47726;BME280;33483;48.294;16.388;2022-08-27T09:36:48;99225.44;;;29.85;59.17
47726;BME280;33483;48.294;16.388;2022-08-27T09:39:26;99219.44;;;30.01;58.24
47726;BME280;33483;48.294;16.388;2022-08-27T09:41:56;99230.59;;;31.29;53.98
47726;BME280;33483;48.294;16.388;2022-08-27T09:44:23;99222.59;;;32.24;53.32
47726;BME280;33483;48.294;16.388;2022-08-27T09:46:56;99229.75;;;33.50;50.49
47726;BME280;33483;48.294;16.388;2022-08-27T09:49:25;99227.53;;;33.45;49.07
47726;BME280;33483;48.294;16.388;2022-08-27T09:51:53;99224.34;;;33.25;48.46
47726;BME280;33483;48.294;16.388;2022-08-27T09:57:05;99223.00;;;32.44;51.14
47726;BME280;33483;48.294;16.388;2022-08-27T09:59:36;99216.50;;;32.04;51.84
47726;BME280;33483;48.294;16.388;2022-08-27T10:02:18;99214.31;;;32.03;50.61
47726;BME280;33483;48.294;16.388;2022-08-27T10:04:52;99217.41;;;32.15;50.55
47726;BME280;33483;48.294;16.388;2022-08-27T10:13:35;99209.22;;;31.65;50.40
47726;BME280;33483;48.294;16.388;2022-08-27T10:22:13;99214.75;;;31.89;52.60
47726;BME280;33483;48.294;16.388;2022-08-27T10:30:13;99219.53;;;30.56;53.64
47726;BME280;33483;48.294;16.388;2022-08-27T10:33:05;99221.16;;;30.37;55.62
47726;BME280;33483;48.294;16.388;2022-08-27T10:35:46;99217.69;;;30.15;55.08
47726;BME280;33483;48.294;16.388;2022-08-27T10:41:10;99207.50;;;30.08;57.68
47726;BME280;33483;48.294;16.388;2022-08-27T10:44:06;99202.81;;;29.93;54.57
47726;BME280;33483;48.294;16.388;2022-08-27T10:49:30;99189.59;;;30.06;56.56
47726;BME280;33483;48.294;16.388;2022-08-27T10:54:41;99181.19;;;29.86;56.26
47726;BME280;33483;48.294;16.388;2022-08-27T10:57:14;99190.81;;;29.73;57.21
47726;BME280;33483;48.294;16.388;2022-08-27T11:00:15;99187.25;;;29.74;58.48
47726;BME280;33483;48.294;16.388;2022-08-27T11:03:40;99183.38;;;29.88;57.87
47726;BME280;33483;48.294;16.388;2022-08-27T11:05:44;99188.47;;;29.91;57.10
47726;BME280;33483;48.294;16.388;2022-08-27T11:08:15;99177.84;;;29.96;55.93
47726;BME280;33483;48.294;16.388;2022-08-27T11:11:00;99184.88;;;29.91;59.11
47726;BME280;33483;48.294;16.388;2022-08-27T11:13:50;99180.47;;;29.62;58.05
47726;BME280;33483;48.294;16.388;2022-08-27T11:16:38;99176.94;;;29.63;57.95
47726;BME280;33483;48.294;16.388;2022-08-27T11:22:30;99169.53;;;29.54;57.55
47726;BME280;33483;48.294;16.388;2022-08-27T11:27:29;99161.19;;;29.86;56.51
47726;BME280;33483;48.294;16.388;2022-08-27T11:29:58;99161.78;;;29.82;56.45
47726;BME280;33483;48.294;16.388;2022-08-27T11:32:42;99148.78;;;30.03;57.91
47726;BME280;33483;48.294;16.388;2022-08-27T11:35:21;99150.63;;;29.93;56.09
47726;BME280;33483;48.294;16.388;2022-08-27T11:43:19;99154.03;;;29.87;59.28
47726;BME280;33483;48.294;16.388;2022-08-27T11:46:00;99153.84;;;29.55;58.38
47726;BME280;33483;48.294;16.388;2022-08-27T11:48:31;99155.75;;;29.70;58.61
47726;BME280;33483;48.294;16.388;2022-08-27T11:53:38;99158.53;;;29.45;58.60
47726;BME280;33483;48.294;16.388;2022-08-27T12:01:56;99159.34;;;29.47;61.03
47726;BME280;33483;48.294;16.388;2022-08-27T12:07:26;99153.50;;;29.43;58.59
47726;BME280;33483;48.294;16.388;2022-08-27T12:15:49;99165.28;;;29.79;57.08
47726;BME280;33483;48.294;16.388;2022-08-27T12:29:26;99158.69;;;29.74;59.42
47726;BME280;33483;48.294;16.388;2022-08-27T12:32:18;99150.44;;;29.61;59.16
47726;BME280;33483;48.294;16.388;2022-08-27T12:35:20;99156.44;;;29.71;58.02
47726;BME280;33483;48.294;16.388;2022-08-27T12:40:50;99143.53;;;29.68;57.74
47726;BME280;33483;48.294;16.388;2022-08-27T12:43:27;99143.97;;;29.84;58.20
47726;BME280;33483;48.294;16.388;2022-08-27T12:46:02;99140.66;;;29.68;58.69
47726;BME280;33483;48.294;16.388;2022-08-27T12:48:33;99144.53;;;29.78;59.06
47726;BME280;33483;48.294;16.388;2022-08-27T12:51:13;99135.66;;;29.94;57.31
47726;BME280;33483;48.294;16.388;2022-08-27T12:53:50;99133.84;;;29.79;55.86
47726;BME280;33483;48.294;16.388;2022-08-27T12:56:36;99125.47;;;29.87;56.43
47726;BME280;33483;48.294;16.388;2022-08-27T13:04:24;99124.25;;;29.68;55.32
47726;BME280;33483;48.294;16.388;2022-08-27T13:06:53;99122.72;;;29.65;55.19
47726;BME280;33483;48.294;16.388;2022-08-27T13:09:32;99117.38;;;29.77;55.99
47726;BME280;33483;48.294;16.388;2022-08-27T13:12:02;99103.22;;;29.83;54.66
47726;BME280;33483;48.294;16.388;2022-08-27T13:14:37;99100.22;;;29.77;53.46
47726;BME280;33483;48.294;16.388;2022-08-27T13:17:18;99104.78;;;29.88;53.50
47726;BME280;33483;48.294;16.388;2022-08-27T13:19:58;99106.78;;;29.82;54.48
47726;BME280;33483;48.294;16.388;2022-08-27T13:22:29;99102.47;;;29.81;54.56
47726;BME280;33483;48.294;16.388;2022-08-27T13:24:58;99102.56;;;29.85;53.96
47726;BME280;33483;48.294;16.388;2022-08-27T13:27:33;99103.66;;;30.00;55.54
47726;BME280;33483;48.294;16.388;2022-08-27T13:30:05;99092.22;;;30.00;55.97
47726;BME280;33483;48.294;16.388;2022-08-27T13:32:35;99091.91;;;29.88;54.68
47726;BME280;33483;48.294;16.388;2022-08-27T13:35:03;99093.47;;;29.93;54.11
47726;BME280;33483;48.294;16.388;2022-08-27T13:37:47;99100.66;;;29.94;54.95
47726;BME280;33483;48.294;16.388;2022-08-27T13:40:32;99100.97;;;30.06;55.34
47726;BME280;33483;48.294;16.388;2022-08-27T13:45:37;99101.78;;;30.10;55.86
47726;BME280;33483;48.294;16.388;2022-08-27T13:48:05;99101.16;;;30.14;56.68
47726;BME280;33483;48.294;16.388;2022-08-27T13:50:36;99099.00;;;30.12;55.35
47726;BME280;33483;48.294;16.388;2022-08-27T13:53:06;99097.78;;;30.21;56.31
47726;BME280;33483;48.294;16.388;2022-08-27T13:55:57;99104.53;;;30.06;55.46
47726;BME280;33483;48.294;16.388;2022-08-27T13:58:27;99103.53;;;29.94;56.66
47726;BME280;33483;48.294;16.388;2022-08-27T14:01:15;99103.28;;;29.85;58.43
47726;BME280;33483;48.294;16.388;2022-08-27T14:04:06;99103.06;;;29.52;58.39
47726;BME280;33483;48.294;16.388;2022-08-27T14:06:43;99098.84;;;29.06;59.37
47726;BME280;33483;48.294;16.388;2022-08-27T14:09:16;99100.25;;;28.81;60.18
47726;BME280;33483;48.294;16.388;2022-08-27T14:11:45;99104.06;;;28.66;59.38
47726;BME280;33483;48.294;16.388;2022-08-27T14:14:16;99094.09;;;28.67;59.37
47726;BME280;33483;48.294;16.388;2022-08-27T14:16:56;99094.56;;;28.59;59.26
47726;BME280;33483;48.294;16.388;2022-08-27T14:19:29;99092.31;;;28.56;59.00
47726;BME280;33483;48.294;16.388;2022-08-27T14:22:07;99090.81;;;28.53;58.62
47726;BME280;33483;48.294;16.388;2022-08-27T14:24:35;99086.75;;;28.38;61.56
47726;BME280;33483;48.294;16.388;2022-08-27T14:27:08;99080.72;;;28.28;63.68
47726;BME280;33483;48.294;16.388;2022-08-27T14:29:36;99087.97;;;28.31;63.71
47726;BME280;33483;48.294;16.388;2022-08-27T14:32:03;99086.09;;;28.18;63.63
47726;BME280;33483;48.294;16.388;2022-08-27T14:34:34;99090.34;;;28.17;64.69
47726;BME280;33483;48.294;16.388;2022-08-27T14:37:03;99080.38;;;28.18;64.42
47726;BME280;33483;48.294;16.388;2022-08-27T14:39:31;99080.84;;;28.32;63.62
47726;BME280;33483;48.294;16.388;2022-08-27T14:42:01;99083.56;;;28.28;63.95
47726;BME280;33483;48.294;16.388;2022-08-27T14:44:31;99082.38;;;28.35;63.91
47726;BME280;33483;48.294;16.388;2022-08-27T14:46:58;99084.44;;;28.33;63.87
47726;BME280;33483;48.294;16.388;2022-08-27T14:49:30;99075.41;;;28.40;63.13
47726;BME280;33483;48.294;16.388;2022-08-27T14:51:57;99074.50;;;28.55;63.70